sensor_id;sensor_type;location;lat;lon;timestamp;pressure;altitude;pressure_sealevel;temperature;humidity
57562;BME280;43397;51.530;5.974;2023-01-29T00:00:31;102654.22;;;1.22;85.42
57562;BME280;43397;51.530;5.974;2023-01-29T00:02:57;102643.56;;;1.05;84.49
57562;BME280;43397;51.530;5.974;2023-01-29T00:05:23;102659.44;;;0.65;85.82
57562;BME280;43397;51.530;5.974;2023-01-29T00:07:49;102656.34;;;0.85;82.39
57562;BME280;43397;51.530;5.974;2023-01-29T00:10:16;102661.56;;;0.70;81.90
57562;BME280;43397;51.530;5.974;2023-01-29T00:12:42;102662.78;;;0.34;82.81
57562;BME280;43397;51.530;5.974;2023-01-29T00:15:08;102662.97;;;0.37;83.68
57562;BME280;43397;51.530;5.974;2023-01-29T00:17:33;102654.00;;;0.47;85.52
57562;BME280;43397;51.530;5.974;2023-01-29T00:19:59;102652.28;;;0.47;86.48
57562;BME280;43397;51.530;5.974;2023-01-29T00:22:25;102646.72;;;0.56;88.05
57562;BME280;43397;51.530;5.974;2023-01-29T00:24:50;102644.19;;;1.00;85.47
57562;BME280;43397;51.530;5.974;2023-01-29T00:27:17;102643.38;;;1.16;81.96
57562;BME280;43397;51.530;5.974;2023-01-29T00:29:43;102635.59;;;1.18;83.29
57562;BME280;43397;51.530;5.974;2023-01-29T00:32:09;102642.09;;;0.95;85.74
57562;BME280;43397;51.530;5.974;2023-01-29T00:34:34;102628.91;;;0.93;85.87
57562;BME280;43397;51.530;5.974;2023-01-29T00:37:00;102638.91;;;1.30;83.67
57562;BME280;43397;51.530;5.974;2023-01-29T00:39:26;102626.28;;;1.38;82.67
57562;BME280;43397;51.530;5.974;2023-01-29T00:41:51;102628.28;;;1.42;81.48
57562;BME280;43397;51.530;5.974;2023-01-29T00:44:18;102628.72;;;1.35;81.26
57562;BME280;43397;51.530;5.974;2023-01-29T00:46:44;102628.28;;;1.12;81.62
57562;BME280;43397;51.530;5.974;2023-01-29T00:49:10;102613.28;;;0.95;82.82
57562;BME280;43397;51.530;5.974;2023-01-29T00:51:37;102618.25;;;0.90;82.69
57562;BME280;43397;51.530;5.974;2023-01-29T00:54:03;102607.66;;;0.74;85.19
57562;BME280;43397;51.530;5.974;2023-01-29T00:56:29;102614.03;;;0.92;84.70
57562;BME280;43397;51.530;5.974;2023-01-29T00:58:55;102620.72;;;0.87;84.48
57562;BME280;43397;51.530;5.974;2023-01-29T01:01:23;102607.88;;;0.77;87.55
57562;BME280;43397;51.530;5.974;2023-01-29T01:03:49;102600.63;;;0.58;87.18
57562;BME280;43397;51.530;5.974;2023-01-29T01:06:14;102601.84;;;0.50;87.75
57562;BME280;43397;51.530;5.974;2023-01-29T01:08:40;102600.44;;;0.55;88.53
57562;BME280;43397;51.530;5.974;2023-01-29T01:11:06;102592.47;;;0.38;89.77
57562;BME280;43397;51.530;5.974;2023-01-29T01:13:32;102589.16;;;0.56;89.71
57562;BME280;43397;51.530;5.974;2023-01-29T01:15:58;102590.53;;;0.64;89.64
57562;BME280;43397;51.530;5.974;2023-01-29T01:18:28;102586.94;;;0.77;88.60
57562;BME280;43397;51.530;5.974;2023-01-29T01:20:56;102587.56;;;1.02;86.81
57562;BME280;43397;51.530;5.974;2023-01-29T01:23:22;102599.97;;;0.47;89.83
57562;BME280;43397;51.530;5.974;2023-01-29T01:25:47;102586.03;;;0.76;88.92
57562;BME280;43397;51.530;5.974;2023-01-29T01:28:13;102590.47;;;0.92;88.24
57562;BME280;43397;51.530;5.974;2023-01-29T01:30:39;102593.34;;;1.27;84.58
57562;BME280;43397;51.530;5.974;2023-01-29T01:33:05;102590.72;;;1.12;84.64
57562;BME280;43397;51.530;5.974;2023-01-29T01:35:32;102594.44;;;1.00;85.09
57562;BME280;43397;51.530;5.974;2023-01-29T01:37:57;102589.91;;;0.25;90.13
57562;BME280;43397;51.530;5.974;2023-01-29T01:40:24;102590.09;;;0.00;93.12
57562;BME280;43397;51.530;5.974;2023-01-29T01:42:51;102583.94;;;0.28;93.37
57562;BME280;43397;51.530;5.974;2023-01-29T01:45:20;102593.97;;;0.93;87.94
57562;BME280;43397;51.530;5.974;2023-01-29T01:47:50;102593.53;;;0.85;86.38
57562;BME280;43397;51.530;5.974;2023-01-29T01:50:20;102591.44;;;0.79;86.06
57562;BME280;43397;51.530;5.974;2023-01-29T01:52:50;102604.13;;;0.58;88.10
57562;BME280;43397;51.530;5.974;2023-01-29T01:55:20;102610.31;;;0.31;91.08
57562;BME280;43397;51.530;5.974;2023-01-29T01:57:52;102599.97;;;0.47;90.25
57562;BME280;43397;51.530;5.974;2023-01-29T02:00:21;102606.81;;;0.45;90.49
57562;BME280;43397;51.530;5.974;2023-01-29T02:02:49;102616.22;;;0.28;91.21
57562;BME280;43397;51.530;5.974;2023-01-29T02:05:15;102618.63;;;0.38;91.04
57562;BME280;43397;51.530;5.974;2023-01-29T02:07:42;102614.69;;;0.60;88.50
57562;BME280;43397;51.530;5.974;2023-01-29T02:10:14;102603.75;;;0.37;89.98
57562;BME280;43397;51.530;5.974;2023-01-29T02:12:41;102596.63;;;0.35;90.39
57562;BME280;43397;51.530;5.974;2023-01-29T02:15:09;102605.09;;;0.31;91.00
57562;BME280;43397;51.530;5.974;2023-01-29T02:17:35;102604.63;;;0.38;89.60
57562;BME280;43397;51.530;5.974;2023-01-29T02:20:10;102602.09;;;0.68;88.54
57562;BME280;43397;51.530;5.974;2023-01-29T02:26:14;102606.91;;;0.47;88.87
57562;BME280;43397;51.530;5.974;2023-01-29T02:28:50;102615.00;;;0.36;88.68
57562;BME280;43397;51.530;5.974;2023-01-29T02:31:23;102614.94;;;0.35;89.53
57562;BME280;43397;51.530;5.974;2023-01-29T02:34:00;102623.66;;;0.35;90.76
57562;BME280;43397;51.530;5.974;2023-01-29T02:36:36;102616.47;;;0.46;89.86
57562;BME280;43397;51.530;5.974;2023-01-29T02:39:10;102611.09;;;0.58;88.66
57562;BME280;43397;51.530;5.974;2023-01-29T02:41:42;102602.50;;;0.60;88.37
57562;BME280;43397;51.530;5.974;2023-01-29T02:44:16;102610.31;;;0.31;89.25
57562;BME280;43397;51.530;5.974;2023-01-29T02:46:49;102608.28;;;0.55;87.18
57562;BME280;43397;51.530;5.974;2023-01-29T02:49:21;102606.34;;;0.37;87.75
57562;BME280;43397;51.530;5.974;2023-01-29T02:51:55;102610.66;;;0.22;88.85
57562;BME280;43397;51.530;5.974;2023-01-29T02:54:29;102611.09;;;0.02;90.19
57562;BME280;43397;51.530;5.974;2023-01-29T02:56:58;102614.09;;;0.36;89.22
57562;BME280;43397;51.530;5.974;2023-01-29T02:59:30;102617.81;;;0.39;88.14
57562;BME280;43397;51.530;5.974;2023-01-29T03:02:02;102600.47;;;0.27;86.69
57562;BME280;43397;51.530;5.974;2023-01-29T03:04:32;102609.44;;;0.17;87.69
57562;BME280;43397;51.530;5.974;2023-01-29T03:07:03;102606.19;;;-0.07;88.70
57562;BME280;43397;51.530;5.974;2023-01-29T03:09:33;102602.97;;;-0.03;89.85
57562;BME280;43397;51.530;5.974;2023-01-29T03:12:04;102601.25;;;0.26;87.77
57562;BME280;43397;51.530;5.974;2023-01-29T03:14:36;102615.38;;;0.14;87.24
57562;BME280;43397;51.530;5.974;2023-01-29T03:17:05;102615.28;;;0.13;87.25
57562;BME280;43397;51.530;5.974;2023-01-29T03:19:37;102609.19;;;-0.01;88.50
57562;BME280;43397;51.530;5.974;2023-01-29T03:22:05;102609.09;;;-0.03;88.49
57562;BME280;43397;51.530;5.974;2023-01-29T03:24:34;102611.03;;;0.15;88.31
57562;BME280;43397;51.530;5.974;2023-01-29T03:27:04;102607.06;;;0.07;88.69
57562;BME280;43397;51.530;5.974;2023-01-29T03:29:31;102608.41;;;0.00;89.35
57562;BME280;43397;51.530;5.974;2023-01-29T03:31:59;102601.19;;;0.11;89.66
57562;BME280;43397;51.530;5.974;2023-01-29T03:34:26;102605.97;;;0.03;89.40
57562;BME280;43397;51.530;5.974;2023-01-29T03:36:54;102607.06;;;0.07;90.59
57562;BME280;43397;51.530;5.974;2023-01-29T03:39:23;102603.75;;;0.09;89.84
57562;BME280;43397;51.530;5.974;2023-01-29T03:41:54;102598.19;;;-0.24;91.63
57562;BME280;43397;51.530;5.974;2023-01-29T03:44:27;102600.69;;;0.16;90.80
57562;BME280;43397;51.530;5.974;2023-01-29T03:46:56;102600.47;;;-0.02;91.02
57562;BME280;43397;51.530;5.974;2023-01-29T03:49:29;102606.41;;;0.24;90.08
57562;BME280;43397;51.530;5.974;2023-01-29T03:51:59;102595.03;;;0.24;90.70
57562;BME280;43397;51.530;5.974;2023-01-29T03:54:33;102591.47;;;0.36;90.64
57562;BME280;43397;51.530;5.974;2023-01-29T03:57:08;102592.97;;;0.18;90.74
57562;BME280;43397;51.530;5.974;2023-01-29T03:59:39;102584.00;;;0.43;89.87
57562;BME280;43397;51.530;5.974;2023-01-29T04:02:10;102581.06;;;0.66;89.65
57562;BME280;43397;51.530;5.974;2023-01-29T04:04:43;102586.50;;;0.41;89.84
57562;BME280;43397;51.530;5.974;2023-01-29T04:07:12;102572.75;;;0.15;92.10
57562;BME280;43397;51.530;5.974;2023-01-29T04:09:44;102566.53;;;0.28;92.28
57562;BME280;43397;51.530;5.974;2023-01-29T04:12:13;102575.16;;;0.40;91.76
57562;BME280;43397;51.530;5.974;2023-01-29T04:14:40;102566.16;;;0.50;91.49
57562;BME280;43397;51.530;5.974;2023-01-29T04:17:08;102572.66;;;0.57;91.30
57562;BME280;43397;51.530;5.974;2023-01-29T04:19:38;102563.00;;;0.71;90.62
57562;BME280;43397;51.530;5.974;2023-01-29T04:22:06;102561.50;;;0.74;90.68
57562;BME280;43397;51.530;5.974;2023-01-29T04:24:35;102561.50;;;0.74;89.87
57562;BME280;43397;51.530;5.974;2023-01-29T04:27:11;102554.69;;;0.63;90.21
57562;BME280;43397;51.530;5.974;2023-01-29T04:29:50;102561.72;;;1.09;89.57
57562;BME280;43397;51.530;5.974;2023-01-29T04:32:26;102561.34;;;1.17;87.66
57562;BME280;43397;51.530;5.974;2023-01-29T04:34:59;102560.56;;;1.03;88.80
57562;BME280;43397;51.530;5.974;2023-01-29T04:37:34;102559.31;;;0.82;89.63
57562;BME280;43397;51.530;5.974;2023-01-29T04:40:08;102571.81;;;1.17;89.05
57562;BME280;43397;51.530;5.974;2023-01-29T04:42:43;102561.75;;;1.55;87.61
57562;BME280;43397;51.530;5.974;2023-01-29T04:45:17;102558.13;;;1.53;86.84
57562;BME280;43397;51.530;5.974;2023-01-29T04:47:48;102556.41;;;1.53;87.59
57562;BME280;43397;51.530;5.974;2023-01-29T04:50:21;102550.03;;;1.48;87.74
57562;BME280;43397;51.530;5.974;2023-01-29T04:52:54;102544.91;;;1.66;87.44
57562;BME280;43397;51.530;5.974;2023-01-29T04:55:28;102539.59;;;1.81;87.26
57562;BME280;43397;51.530;5.974;2023-01-29T04:58:04;102534.53;;;2.00;86.25
57562;BME280;43397;51.530;5.974;2023-01-29T05:00:34;102528.22;;;1.49;87.79
57562;BME280;43397;51.530;5.974;2023-01-29T05:03:01;102532.31;;;1.44;89.17
57562;BME280;43397;51.530;5.974;2023-01-29T05:05:29;102525.94;;;1.24;90.21
57562;BME280;43397;51.530;5.974;2023-01-29T05:07:55;102519.78;;;1.38;89.53
57562;BME280;43397;51.530;5.974;2023-01-29T05:10:23;102520.75;;;1.40;88.83
57562;BME280;43397;51.530;5.974;2023-01-29T05:12:53;102512.28;;;1.30;89.82
57562;BME280;43397;51.530;5.974;2023-01-29T05:15:26;102512.06;;;1.41;89.93
57562;BME280;43397;51.530;5.974;2023-01-29T05:17:54;102511.88;;;1.70;89.04
57562;BME280;43397;51.530;5.974;2023-01-29T05:20:20;102509.03;;;1.81;87.65
57562;BME280;43397;51.530;5.974;2023-01-29T05:22:48;102516.47;;;1.57;88.91
57562;BME280;43397;51.530;5.974;2023-01-29T05:25:20;102504.28;;;1.27;89.71
57562;BME280;43397;51.530;5.974;2023-01-29T05:27:48;102507.63;;;1.55;89.76
57562;BME280;43397;51.530;5.974;2023-01-29T05:30:14;102502.28;;;1.54;89.97
57562;BME280;43397;51.530;5.974;2023-01-29T05:32:40;102492.75;;;1.08;91.02
57562;BME280;43397;51.530;5.974;2023-01-29T05:35:06;102503.56;;;1.46;90.02
57562;BME280;43397;51.530;5.974;2023-01-29T05:37:32;102495.00;;;1.97;88.92
57562;BME280;43397;51.530;5.974;2023-01-29T05:39:59;102492.53;;;1.68;89.01
57562;BME280;43397;51.530;5.974;2023-01-29T05:42:25;102496.84;;;1.98;87.77
57562;BME280;43397;51.530;5.974;2023-01-29T05:44:50;102488.56;;;1.74;88.94
57562;BME280;43397;51.530;5.974;2023-01-29T05:47:18;102487.13;;;1.64;89.88
57562;BME280;43397;51.530;5.974;2023-01-29T05:49:43;102488.16;;;1.83;89.88
57562;BME280;43397;51.530;5.974;2023-01-29T05:52:09;102490.50;;;2.11;88.66
57562;BME280;43397;51.530;5.974;2023-01-29T05:54:35;102498.53;;;2.14;87.84
57562;BME280;43397;51.530;5.974;2023-01-29T05:57:02;102509.44;;;2.05;88.42
57562;BME280;43397;51.530;5.974;2023-01-29T05:59:27;102510.09;;;2.01;88.66
57562;BME280;43397;51.530;5.974;2023-01-29T06:01:53;102521.66;;;2.05;88.29
57562;BME280;43397;51.530;5.974;2023-01-29T06:04:19;102512.31;;;1.77;89.05
57562;BME280;43397;51.530;5.974;2023-01-29T06:06:44;102525.75;;;2.00;89.03
57562;BME280;43397;51.530;5.974;2023-01-29T06:09:10;102527.63;;;2.35;88.24
57562;BME280;43397;51.530;5.974;2023-01-29T06:11:36;102543.03;;;2.13;87.66
57562;BME280;43397;51.530;5.974;2023-01-29T06:14:03;102541.16;;;2.26;87.69
57562;BME280;43397;51.530;5.974;2023-01-29T06:16:28;102544.41;;;2.39;87.40
57562;BME280;43397;51.530;5.974;2023-01-29T06:18:54;102537.16;;;2.33;87.57
57562;BME280;43397;51.530;5.974;2023-01-29T06:21:20;102535.25;;;2.14;87.86
57562;BME280;43397;51.530;5.974;2023-01-29T06:23:45;102538.53;;;2.26;87.80
57562;BME280;43397;51.530;5.974;2023-01-29T06:26:13;102550.63;;;2.57;87.86
57562;BME280;43397;51.530;5.974;2023-01-29T06:28:39;102549.25;;;2.47;87.13
57562;BME280;43397;51.530;5.974;2023-01-29T06:31:06;102535.50;;;2.35;87.23
57562;BME280;43397;51.530;5.974;2023-01-29T06:33:32;102526.16;;;2.08;88.60
57562;BME280;43397;51.530;5.974;2023-01-29T06:35:59;102517.22;;;2.20;88.54
57562;BME280;43397;51.530;5.974;2023-01-29T06:38:26;102512.66;;;1.83;89.57
57562;BME280;43397;51.530;5.974;2023-01-29T06:40:52;102518.78;;;2.17;89.21
57562;BME280;43397;51.530;5.974;2023-01-29T06:43:19;102499.66;;;2.36;89.24
57562;BME280;43397;51.530;5.974;2023-01-29T06:45:47;102516.81;;;2.63;87.69
57562;BME280;43397;51.530;5.974;2023-01-29T06:48:14;102497.94;;;2.36;88.83
57562;BME280;43397;51.530;5.974;2023-01-29T06:50:39;102497.94;;;2.20;90.42
57562;BME280;43397;51.530;5.974;2023-01-29T06:53:05;102497.56;;;1.79;91.64
57562;BME280;43397;51.530;5.974;2023-01-29T06:55:31;102498.63;;;1.99;92.00
57562;BME280;43397;51.530;5.974;2023-01-29T06:57:56;102480.75;;;2.09;91.10
57562;BME280;43397;51.530;5.974;2023-01-29T07:00:22;102475.59;;;2.26;90.37
57562;BME280;43397;51.530;5.974;2023-01-29T07:02:48;102477.38;;;2.62;89.20
57562;BME280;43397;51.530;5.974;2023-01-29T07:05:15;102466.31;;;2.17;90.28
57562;BME280;43397;51.530;5.974;2023-01-29T07:07:41;102479.78;;;2.41;90.23
57562;BME280;43397;51.530;5.974;2023-01-29T07:10:08;102492.38;;;2.64;89.23
57562;BME280;43397;51.530;5.974;2023-01-29T07:12:33;102495.31;;;3.06;87.77
57562;BME280;43397;51.530;5.974;2023-01-29T07:14:59;102493.66;;;2.91;87.93
57562;BME280;43397;51.530;5.974;2023-01-29T07:17:25;102494.91;;;2.81;87.67
57562;BME280;43397;51.530;5.974;2023-01-29T07:19:50;102505.38;;;3.15;86.96
57562;BME280;43397;51.530;5.974;2023-01-29T07:22:17;102510.31;;;3.45;86.40
57562;BME280;43397;51.530;5.974;2023-01-29T07:24:43;102501.81;;;3.33;86.45
57562;BME280;43397;51.530;5.974;2023-01-29T07:27:09;102495.94;;;3.56;86.17
57562;BME280;43397;51.530;5.974;2023-01-29T07:29:34;102497.56;;;3.17;86.85
57562;BME280;43397;51.530;5.974;2023-01-29T07:32:00;102505.34;;;3.51;86.56
57562;BME280;43397;51.530;5.974;2023-01-29T07:34:26;102506.13;;;3.13;86.97
57562;BME280;43397;51.530;5.974;2023-01-29T07:36:52;102496.53;;;3.50;85.99
57562;BME280;43397;51.530;5.974;2023-01-29T07:39:19;102496.63;;;3.52;85.48
57562;BME280;43397;51.530;5.974;2023-01-29T07:41:44;102487.16;;;3.56;84.96
57562;BME280;43397;51.530;5.974;2023-01-29T07:44:10;102479.19;;;3.17;85.60
57562;BME280;43397;51.530;5.974;2023-01-29T07:46:36;102479.09;;;3.53;84.90
57562;BME280;43397;51.530;5.974;2023-01-29T07:49:01;102483.69;;;3.19;86.33
57562;BME280;43397;51.530;5.974;2023-01-29T07:51:27;102487.09;;;3.74;84.11
57562;BME280;43397;51.530;5.974;2023-01-29T07:53:53;102481.03;;;3.75;84.49
57562;BME280;43397;51.530;5.974;2023-01-29T07:56:20;102481.72;;;3.15;85.90
57562;BME280;43397;51.530;5.974;2023-01-29T07:58:45;102488.00;;;3.37;86.54
57562;BME280;43397;51.530;5.974;2023-01-29T08:01:11;102490.09;;;3.81;85.09
57562;BME280;43397;51.530;5.974;2023-01-29T08:03:37;102497.34;;;3.30;86.13
57562;BME280;43397;51.530;5.974;2023-01-29T08:06:03;102487.59;;;3.09;86.73
57562;BME280;43397;51.530;5.974;2023-01-29T08:08:29;102495.41;;;3.08;87.92
57562;BME280;43397;51.530;5.974;2023-01-29T08:10:54;102494.56;;;3.27;86.92
57562;BME280;43397;51.530;5.974;2023-01-29T08:13:21;102486.34;;;3.39;86.74
57562;BME280;43397;51.530;5.974;2023-01-29T08:15:47;102495.94;;;3.56;85.99
57562;BME280;43397;51.530;5.974;2023-01-29T08:18:13;102505.13;;;3.84;84.66
57562;BME280;43397;51.530;5.974;2023-01-29T08:20:39;102495.63;;;3.13;86.57
57562;BME280;43397;51.530;5.974;2023-01-29T08:23:06;102491.31;;;3.70;86.19
57562;BME280;43397;51.530;5.974;2023-01-29T08:25:34;102484.00;;;3.07;86.91
57562;BME280;43397;51.530;5.974;2023-01-29T08:28:00;102485.03;;;2.93;88.47
57562;BME280;43397;51.530;5.974;2023-01-29T08:30:29;102483.72;;;3.39;87.29
57562;BME280;43397;51.530;5.974;2023-01-29T08:32:56;102477.44;;;3.17;87.61
57562;BME280;43397;51.530;5.974;2023-01-29T08:35:22;102467.69;;;3.52;87.59
57562;BME280;43397;51.530;5.974;2023-01-29T08:37:52;102459.28;;;3.04;87.56
57562;BME280;43397;51.530;5.974;2023-01-29T08:40:18;102464.69;;;3.25;89.15
57562;BME280;43397;51.530;5.974;2023-01-29T08:42:44;102465.75;;;3.48;88.15
57562;BME280;43397;51.530;5.974;2023-01-29T08:45:10;102466.78;;;3.32;87.84
57562;BME280;43397;51.530;5.974;2023-01-29T08:47:37;102462.41;;;3.33;87.17
57562;BME280;43397;51.530;5.974;2023-01-29T08:50:03;102455.28;;;3.30;88.63
57562;BME280;43397;51.530;5.974;2023-01-29T08:52:29;102458.22;;;3.00;89.14
57562;BME280;43397;51.530;5.974;2023-01-29T08:54:55;102464.31;;;3.17;89.17
57562;BME280;43397;51.530;5.974;2023-01-29T08:57:21;102449.47;;;3.00;89.15
57562;BME280;43397;51.530;5.974;2023-01-29T08:59:46;102438.38;;;2.87;90.09
57562;BME280;43397;51.530;5.974;2023-01-29T09:02:12;102443.00;;;3.11;89.42
57562;BME280;43397;51.530;5.974;2023-01-29T09:04:39;102444.09;;;2.79;89.81
57562;BME280;43397;51.530;5.974;2023-01-29T09:07:04;102446.56;;;2.41;91.41
57562;BME280;43397;51.530;5.974;2023-01-29T09:09:30;102445.28;;;3.03;91.16
57562;BME280;43397;51.530;5.974;2023-01-29T09:11:56;102444.38;;;2.85;90.45
57562;BME280;43397;51.530;5.974;2023-01-29T09:14:21;102438.09;;;2.81;91.24
57562;BME280;43397;51.530;5.974;2023-01-29T09:16:47;102437.47;;;2.87;90.68
57562;BME280;43397;51.530;5.974;2023-01-29T09:19:13;102439.81;;;2.99;91.25
57562;BME280;43397;51.530;5.974;2023-01-29T09:21:40;102443.53;;;3.04;90.29
57562;BME280;43397;51.530;5.974;2023-01-29T09:24:06;102438.97;;;2.82;90.21
57562;BME280;43397;51.530;5.974;2023-01-29T09:26:32;102425.25;;;2.87;91.66
57562;BME280;43397;51.530;5.974;2023-01-29T09:28:58;102430.31;;;3.02;90.75
57562;BME280;43397;51.530;5.974;2023-01-29T09:31:24;102442.31;;;3.15;90.67
57562;BME280;43397;51.530;5.974;2023-01-29T09:33:50;102435.78;;;3.07;90.18
57562;BME280;43397;51.530;5.974;2023-01-29T09:36:15;102432.94;;;3.20;90.08
57562;BME280;43397;51.530;5.974;2023-01-29T09:38:42;102431.75;;;3.33;90.20
57562;BME280;43397;51.530;5.974;2023-01-29T09:41:20;102430.69;;;3.67;89.21
57562;BME280;43397;51.530;5.974;2023-01-29T09:43:52;102438.88;;;3.73;88.31
57562;BME280;43397;51.530;5.974;2023-01-29T09:46:22;102423.16;;;3.36;89.13
57562;BME280;43397;51.530;5.974;2023-01-29T09:48:54;102425.03;;;3.38;89.32
57562;BME280;43397;51.530;5.974;2023-01-29T09:51:26;102421.22;;;3.32;89.35
57562;BME280;43397;51.530;5.974;2023-01-29T09:53:58;102419.41;;;3.50;88.08
57562;BME280;43397;51.530;5.974;2023-01-29T09:56:28;102422.63;;;3.62;88.25
57562;BME280;43397;51.530;5.974;2023-01-29T09:58:56;102420.84;;;3.24;87.46
57562;BME280;43397;51.530;5.974;2023-01-29T10:01:27;102422.53;;;3.80;87.92
57562;BME280;43397;51.530;5.974;2023-01-29T10:04:27;102419.34;;;3.87;87.02
57562;BME280;43397;51.530;5.974;2023-01-29T10:10:02;102425.81;;;3.75;86.63
57562;BME280;43397;51.530;5.974;2023-01-29T10:12:42;102416.19;;;3.75;88.01
57562;BME280;43397;51.530;5.974;2023-01-29T10:15:14;102416.09;;;3.54;88.63
57562;BME280;43397;51.530;5.974;2023-01-29T10:17:53;102421.44;;;3.75;88.56
57562;BME280;43397;51.530;5.974;2023-01-29T10:23:22;102425.31;;;3.83;87.53
57562;BME280;43397;51.530;5.974;2023-01-29T10:25:51;102426.25;;;3.85;87.15
57562;BME280;43397;51.530;5.974;2023-01-29T10:28:20;102435.75;;;3.62;87.16
57562;BME280;43397;51.530;5.974;2023-01-29T10:30:49;102432.09;;;3.78;87.32
57562;BME280;43397;51.530;5.974;2023-01-29T10:33:17;102425.56;;;3.89;87.66
57562;BME280;43397;51.530;5.974;2023-01-29T10:35:47;102423.59;;;3.84;88.10
57562;BME280;43397;51.530;5.974;2023-01-29T10:38:23;102425.06;;;3.98;87.35
57562;BME280;43397;51.530;5.974;2023-01-29T10:40:59;102420.09;;;3.85;86.68
57562;BME280;43397;51.530;5.974;2023-01-29T10:43:32;102424.19;;;3.78;86.56
57562;BME280;43397;51.530;5.974;2023-01-29T10:46:11;102423.56;;;3.45;87.66
57562;BME280;43397;51.530;5.974;2023-01-29T10:48:53;102420.66;;;3.97;86.97
57562;BME280;43397;51.530;5.974;2023-01-29T10:51:36;102418.66;;;4.32;85.68
57562;BME280;43397;51.530;5.974;2023-01-29T10:54:13;102417.69;;;3.89;85.83
57562;BME280;43397;51.530;5.974;2023-01-29T10:56:55;102414.84;;;3.85;86.23
57562;BME280;43397;51.530;5.974;2023-01-29T10:59:33;102417.47;;;3.65;86.56
57562;BME280;43397;51.530;5.974;2023-01-29T11:02:01;102412.09;;;3.82;86.01
57562;BME280;43397;51.530;5.974;2023-01-29T11:04:27;102406.13;;;4.05;85.82
57562;BME280;43397;51.530;5.974;2023-01-29T11:06:53;102401.16;;;3.92;86.23
57562;BME280;43397;51.530;5.974;2023-01-29T11:09:25;102389.72;;;3.91;86.13
57562;BME280;43397;51.530;5.974;2023-01-29T11:11:58;102395.44;;;4.02;85.91
57562;BME280;43397;51.530;5.974;2023-01-29T11:14:27;102376.91;;;3.99;85.67
57562;BME280;43397;51.530;5.974;2023-01-29T11:16:54;102375.75;;;3.92;86.25
57562;BME280;43397;51.530;5.974;2023-01-29T11:19:35;102375.50;;;4.07;85.86
57562;BME280;43397;51.530;5.974;2023-01-29T11:22:01;102376.72;;;4.16;85.21
57562;BME280;43397;51.530;5.974;2023-01-29T11:24:27;102365.81;;;4.27;84.59
57562;BME280;43397;51.530;5.974;2023-01-29T11:26:56;102365.41;;;3.97;86.26
57562;BME280;43397;51.530;5.974;2023-01-29T11:29:31;102355.16;;;4.24;85.01
57562;BME280;43397;51.530;5.974;2023-01-29T11:31:59;102351.81;;;4.28;84.63
57562;BME280;43397;51.530;5.974;2023-01-29T11:34:25;102353.44;;;4.25;84.74
57562;BME280;43397;51.530;5.974;2023-01-29T11:36:56;102345.56;;;4.47;84.44
57562;BME280;43397;51.530;5.974;2023-01-29T11:39:23;102324.22;;;4.19;84.13
57562;BME280;43397;51.530;5.974;2023-01-29T11:41:53;102329.78;;;4.47;84.33
57562;BME280;43397;51.530;5.974;2023-01-29T11:44:27;102313.63;;;4.38;84.12
57562;BME280;43397;51.530;5.974;2023-01-29T11:46:55;102316.97;;;4.34;83.92
57562;BME280;43397;51.530;5.974;2023-01-29T11:52:08;102299.81;;;4.89;82.63
57562;BME280;43397;51.530;5.974;2023-01-29T11:54:38;102287.38;;;4.19;83.36
57562;BME280;43397;51.530;5.974;2023-01-29T11:57:18;102281.75;;;4.53;83.08
57562;BME280;43397;51.530;5.974;2023-01-29T11:59:49;102278.56;;;4.84;82.53
57562;BME280;43397;51.530;5.974;2023-01-29T12:02:18;102275.78;;;4.81;82.28
57562;BME280;43397;51.530;5.974;2023-01-29T12:04:45;102254.31;;;4.48;82.69
57562;BME280;43397;51.530;5.974;2023-01-29T12:07:13;102253.19;;;4.86;82.16
57562;BME280;43397;51.530;5.974;2023-01-29T12:09:39;102254.84;;;4.84;82.53
57562;BME280;43397;51.530;5.974;2023-01-29T12:12:16;102241.34;;;4.75;82.42
57562;BME280;43397;51.530;5.974;2023-01-29T12:14:42;102243.53;;;4.87;81.41
57562;BME280;43397;51.530;5.974;2023-01-29T12:17:14;102232.66;;;4.78;82.20
57562;BME280;43397;51.530;5.974;2023-01-29T12:19:45;102229.63;;;4.91;81.87
57562;BME280;43397;51.530;5.974;2023-01-29T12:22:16;102218.19;;;5.14;79.67
57562;BME280;43397;51.530;5.974;2023-01-29T12:24:48;102227.53;;;5.30;80.87
57562;BME280;43397;51.530;5.974;2023-01-29T12:27:21;102224.84;;;5.29;78.84
57562;BME280;43397;51.530;5.974;2023-01-29T12:29:51;102220.84;;;5.14;79.34
57562;BME280;43397;51.530;5.974;2023-01-29T12:32:28;102214.84;;;4.70;79.87
57562;BME280;43397;51.530;5.974;2023-01-29T12:35:01;102206.88;;;4.93;80.16
57562;BME280;43397;51.530;5.974;2023-01-29T12:37:36;102199.75;;;5.14;79.06
57562;BME280;43397;51.530;5.974;2023-01-29T12:40:10;102201.88;;;5.50;79.17
57562;BME280;43397;51.530;5.974;2023-01-29T12:42:39;102202.44;;;5.67;77.79
57562;BME280;43397;51.530;5.974;2023-01-29T12:45:08;102183.63;;;5.31;78.47
57562;BME280;43397;51.530;5.974;2023-01-29T12:47:38;102181.41;;;5.69;77.84
57562;BME280;43397;51.530;5.974;2023-01-29T12:50:15;102189.31;;;5.69;77.78
57562;BME280;43397;51.530;5.974;2023-01-29T12:52:44;102180.53;;;5.70;78.11
57562;BME280;43397;51.530;5.974;2023-01-29T12:55:12;102182.97;;;5.64;79.44
57562;BME280;43397;51.530;5.974;2023-01-29T12:57:45;102178.47;;;5.34;78.31
57562;BME280;43397;51.530;5.974;2023-01-29T13:00:15;102180.31;;;5.36;78.46
57562;BME280;43397;51.530;5.974;2023-01-29T13:02:48;102174.94;;;5.33;78.22
57562;BME280;43397;51.530;5.974;2023-01-29T13:05:20;102176.78;;;5.36;79.10
57562;BME280;43397;51.530;5.974;2023-01-29T13:07:53;102174.50;;;5.21;77.82
57562;BME280;43397;51.530;5.974;2023-01-29T13:10:24;102173.63;;;5.21;78.89
57562;BME280;43397;51.530;5.974;2023-01-29T13:12:57;102161.78;;;5.61;78.55
57562;BME280;43397;51.530;5.974;2023-01-29T13:15:28;102159.28;;;5.38;77.99
57562;BME280;43397;51.530;5.974;2023-01-29T13:18:00;102159.50;;;5.20;78.64
57562;BME280;43397;51.530;5.974;2023-01-29T13:20:28;102162.28;;;5.23;79.81